createdAt,value
2019-06-08T00:01:01.393Z,14.93
2019-06-08T00:03:30.118Z,11.90
2019-06-08T00:05:58.848Z,17.80
2019-06-08T00:08:27.560Z,11.22
2019-06-08T00:10:56.291Z,12.40
2019-06-08T00:13:25.094Z,12.75
2019-06-08T00:15:53.818Z,10.35
2019-06-08T00:18:23.607Z,15.88
2019-06-08T00:20:52.479Z,10.63
2019-06-08T00:23:21.981Z,12.47
2019-06-08T00:25:50.743Z,12.93
2019-06-08T00:28:20.445Z,16.35
2019-06-08T00:30:49.319Z,15.00
2019-06-08T00:33:18.557Z,10.70
2019-06-08T00:35:47.324Z,8.78
2019-06-08T00:38:16.914Z,8.35
2019-06-08T00:40:46.075Z,8.58
2019-06-08T00:43:15.140Z,10.68
2019-06-08T00:45:43.927Z,11.93
2019-06-08T00:48:12.657Z,14.15
2019-06-08T00:50:41.375Z,14.33
2019-06-08T00:53:10.108Z,9.18
2019-06-08T00:55:38.840Z,14.15
2019-06-08T00:58:07.562Z,9.78
2019-06-08T01:00:36.285Z,11.30
2019-06-08T01:03:05.019Z,13.20
2019-06-08T01:05:33.852Z,9.58
2019-06-08T01:08:02.601Z,12.50
2019-06-08T01:10:31.349Z,11.68
2019-06-08T01:13:00.079Z,18.02
2019-06-08T01:15:32.926Z,11.18
2019-06-08T01:18:03.862Z,13.93
2019-06-08T01:20:29.630Z,10.45
2019-06-08T01:22:58.347Z,10.38
2019-06-08T01:25:27.967Z,9.58
2019-06-08T01:27:56.674Z,9.40
2019-06-08T01:30:26.354Z,7.80
2019-06-08T01:32:55.216Z,8.43
2019-06-08T01:35:24.896Z,10.60
2019-06-08T01:37:53.684Z,8.33
2019-06-08T01:40:23.228Z,11.97
2019-06-08T01:42:52.024Z,10.85
2019-06-08T01:45:30.197Z,11.93
2019-06-08T01:48:00.629Z,13.03
2019-06-08T01:50:32.800Z,12.58
2019-06-08T01:53:01.920Z,14.63
2019-06-08T01:55:31.166Z,10.05
2019-06-08T01:58:00.058Z,9.25
2019-06-08T02:00:35.177Z,12.82
2019-06-08T02:03:00.053Z,8.75
2019-06-08T02:05:28.800Z,12.03
2019-06-08T02:07:57.513Z,9.73
2019-06-08T02:10:26.631Z,10.75
2019-06-08T02:12:55.459Z,10.08
2019-06-08T02:15:25.179Z,9.38
2019-06-08T02:17:54.004Z,10.72
2019-06-08T02:20:22.744Z,11.33
2019-06-08T02:22:51.466Z,13.00
2019-06-08T02:25:27.231Z,16.95
2019-06-08T02:27:57.089Z,12.23
2019-06-08T02:30:30.534Z,13.10
2019-06-08T02:33:00.134Z,13.20
2019-06-08T02:35:30.507Z,14.78
2019-06-08T02:37:59.253Z,13.40
2019-06-08T02:40:30.049Z,15.43
2019-06-08T02:42:58.363Z,19.37
2019-06-08T02:45:27.095Z,11.50
2019-06-08T02:47:55.825Z,15.70
2019-06-08T02:50:47.052Z,17.77
2019-06-08T02:53:15.894Z,12.28
2019-06-08T02:55:46.475Z,17.73
2019-06-08T02:58:16.479Z,12.75
2019-06-08T03:00:47.476Z,12.88
2019-06-08T03:03:16.534Z,14.55
2019-06-08T03:05:45.258Z,10.93
2019-06-08T03:08:13.979Z,16.55
2019-06-08T03:10:42.801Z,10.43
2019-06-08T03:13:12.535Z,9.68
2019-06-08T03:15:43.504Z,12.05
2019-06-08T03:18:11.647Z,13.28
2019-06-08T03:20:42.316Z,14.03
2019-06-08T03:23:10.814Z,9.83
2019-06-08T03:25:47.324Z,15.35
2019-06-08T03:28:10.060Z,13.78
2019-06-08T03:30:45.433Z,14.70
2019-06-08T03:33:09.162Z,12.25
2019-06-08T03:35:46.455Z,13.32
2019-06-08T03:38:08.258Z,8.95
2019-06-08T03:40:38.227Z,11.20
2019-06-08T03:43:07.499Z,13.25
2019-06-08T03:45:36.416Z,13.28
2019-06-08T03:48:05.351Z,9.68
2019-06-08T03:50:35.448Z,11.68
2019-06-08T03:53:04.447Z,11.05
2019-06-08T03:55:33.201Z,11.55
2019-06-08T03:58:01.911Z,10.72
2019-06-08T04:00:30.650Z,10.98
2019-06-08T04:02:59.443Z,7.85
2019-06-08T04:05:28.166Z,11.08
2019-06-08T04:07:56.881Z,8.43
2019-06-08T04:10:25.600Z,9.93
2019-06-08T04:12:54.322Z,11.75
2019-06-08T04:15:23.056Z,9.13
2019-06-08T04:17:51.773Z,7.10
2019-06-08T04:20:20.495Z,9.78
2019-06-08T04:22:50.567Z,7.75
2019-06-08T04:25:19.453Z,9.18
2019-06-08T04:27:48.222Z,10.60
2019-06-08T04:30:17.138Z,11.25
2019-06-08T04:32:47.472Z,13.53
2019-06-08T04:35:16.348Z,5.50
2019-06-08T04:37:46.775Z,10.80
2019-06-08T04:40:15.532Z,11.15
2019-06-08T04:42:46.042Z,11.10
2019-06-08T04:45:14.844Z,10.98
2019-06-08T04:47:45.357Z,9.85
2019-06-08T04:50:22.541Z,8.18
2019-06-08T04:52:44.978Z,11.40
2019-06-08T04:55:13.960Z,10.50
2019-06-08T04:57:43.385Z,6.58
2019-06-08T05:00:14.193Z,13.62
2019-06-08T05:02:44.651Z,8.08
2019-06-08T05:05:13.388Z,6.50
2019-06-08T05:07:43.826Z,8.85
2019-06-08T05:10:14.981Z,9.78
2019-06-08T05:12:45.406Z,11.22
2019-06-08T05:15:14.078Z,9.95
2019-06-08T05:17:43.248Z,8.68
2019-06-08T05:20:12.215Z,10.78
2019-06-08T05:22:41.461Z,15.85
2019-06-08T05:25:10.363Z,7.20
2019-06-08T05:27:39.343Z,10.23
2019-06-08T05:30:09.160Z,9.43
2019-06-08T05:32:39.312Z,13.75
2019-06-08T05:35:08.586Z,6.95
2019-06-08T05:37:37.300Z,12.98
2019-06-08T05:40:06.654Z,6.58
2019-06-08T05:42:35.358Z,7.65
2019-06-08T05:45:06.576Z,5.95
2019-06-08T05:47:35.294Z,8.00
2019-06-08T05:50:06.129Z,11.15
2019-06-08T05:52:34.923Z,7.92
2019-06-08T05:55:04.800Z,7.60
2019-06-08T05:57:33.519Z,6.78
2019-06-08T06:00:08.856Z,13.13
2019-06-08T06:02:32.631Z,7.72
2019-06-08T06:05:01.363Z,9.03
2019-06-08T06:07:30.083Z,13.48
2019-06-08T06:09:58.819Z,6.85
2019-06-08T06:12:27.523Z,12.82
2019-06-08T06:14:56.357Z,13.70
2019-06-08T06:17:25.079Z,12.60
2019-06-08T06:19:53.814Z,11.05
2019-06-08T06:22:22.555Z,9.73
2019-06-08T06:24:51.913Z,8.38
2019-06-08T06:27:20.795Z,9.00
2019-06-08T06:29:49.979Z,5.08
2019-06-08T06:32:18.767Z,6.47
2019-06-08T06:34:47.937Z,11.33
2019-06-08T06:37:16.724Z,6.85
2019-06-08T06:39:45.950Z,5.10
2019-06-08T06:42:14.743Z,7.58
2019-06-08T06:44:45.737Z,7.25
2019-06-08T06:47:13.906Z,9.43
2019-06-08T06:49:42.675Z,5.95
2019-06-08T06:52:11.411Z,5.47
2019-06-08T06:54:40.285Z,5.33
2019-06-08T06:57:08.999Z,4.97
2019-06-08T06:59:37.719Z,6.42
2019-06-08T07:02:06.523Z,9.25
2019-06-08T07:04:35.741Z,6.35
2019-06-08T07:07:04.571Z,8.25
2019-06-08T07:09:33.312Z,5.53
2019-06-08T07:12:02.032Z,12.03
2019-06-08T07:14:30.767Z,6.40
2019-06-08T07:16:59.507Z,6.37
2019-06-08T07:19:28.231Z,8.48
2019-06-08T07:21:56.955Z,6.75
2019-06-08T07:24:25.713Z,7.08
2019-06-08T07:26:54.602Z,7.92
2019-06-08T07:29:23.432Z,6.45
2019-06-08T07:31:53.364Z,4.22
2019-06-08T07:34:22.284Z,3.60
2019-06-08T07:36:51.281Z,6.30
2019-06-08T07:39:20.142Z,6.95
2019-06-08T07:41:50.148Z,8.28
2019-06-08T07:44:19.814Z,6.33
2019-06-08T07:46:49.324Z,11.45
2019-06-08T07:49:18.266Z,11.33
2019-06-08T07:51:58.620Z,8.75
2019-06-08T07:54:17.388Z,7.80
2019-06-08T07:56:46.094Z,5.22
2019-06-08T07:59:15.144Z,6.78
2019-06-08T08:01:44.309Z,5.62
2019-06-08T08:04:13.256Z,4.60
2019-06-08T08:06:41.973Z,7.67
2019-06-08T08:09:10.788Z,7.70
2019-06-08T08:11:39.565Z,4.03
2019-06-08T08:14:08.300Z,7.80
2019-06-08T08:16:37.129Z,6.45
2019-06-08T08:19:06.231Z,6.97
2019-06-08T08:21:35.129Z,11.90
2019-06-08T08:24:04.328Z,12.68
2019-06-08T08:26:38.935Z,6.42
2019-06-08T08:29:08.525Z,7.60
2019-06-08T08:31:37.700Z,6.15
2019-06-08T08:34:09.634Z,5.90
2019-06-08T08:36:43.104Z,7.62
2019-06-08T08:39:12.828Z,5.87
2019-06-08T08:41:42.810Z,9.90
2019-06-08T08:44:11.633Z,7.08
2019-06-08T08:46:40.373Z,8.75
2019-06-08T08:49:12.796Z,7.03
2019-06-08T08:51:43.068Z,7.40
2019-06-08T08:54:11.794Z,7.22
2019-06-08T08:56:40.603Z,8.68
2019-06-08T08:59:10.703Z,10.48
2019-06-08T09:01:39.863Z,11.50
2019-06-08T09:04:08.994Z,10.15
2019-06-08T09:06:38.213Z,4.58
2019-06-08T09:09:08.873Z,6.92
2019-06-08T09:11:40.954Z,15.10
2019-06-08T09:14:13.931Z,4.58
2019-06-08T09:16:41.750Z,7.20
2019-06-08T09:19:10.462Z,10.28
2019-06-08T09:21:39.163Z,13.25
2019-06-08T09:24:07.951Z,6.97
2019-06-08T09:26:38.237Z,8.80
2019-06-08T09:29:10.883Z,10.35
2019-06-08T09:31:39.085Z,4.90
2019-06-08T09:34:12.185Z,4.50
2019-06-08T09:36:40.734Z,9.23
2019-06-08T09:39:12.392Z,13.43
2019-06-08T09:41:39.353Z,6.10
2019-06-08T09:44:10.973Z,6.10
2019-06-08T09:46:41.939Z,8.80
2019-06-08T09:49:11.835Z,9.28
2019-06-08T09:51:40.826Z,10.03
2019-06-08T09:54:12.626Z,9.60
2019-06-08T09:56:39.907Z,8.35
2019-06-08T09:59:10.756Z,9.18
2019-06-08T10:01:39.110Z,8.38
2019-06-08T10:04:09.218Z,12.58
2019-06-08T10:06:40.400Z,8.68
2019-06-08T10:09:09.113Z,8.35
2019-06-08T10:11:38.093Z,6.95
2019-06-08T10:14:11.573Z,5.03
2019-06-08T10:16:38.161Z,5.87
2019-06-08T10:19:10.115Z,8.35
2019-06-08T10:21:38.476Z,8.50
2019-06-08T10:24:09.490Z,12.40
2019-06-08T10:26:38.178Z,4.95
2019-06-08T10:29:09.949Z,7.17
2019-06-08T10:31:43.002Z,10.48
2019-06-08T10:34:12.308Z,7.15
2019-06-08T10:36:41.897Z,9.95
2019-06-08T10:39:12.024Z,8.30
2019-06-08T10:41:41.803Z,5.67
2019-06-08T10:44:13.970Z,6.97
2019-06-08T10:46:42.393Z,8.50
2019-06-08T10:49:14.366Z,6.12
2019-06-08T10:51:43.262Z,8.13
2019-06-08T10:54:12.191Z,14.38
2019-06-08T10:56:41.043Z,6.40
2019-06-08T10:59:12.112Z,6.78
2019-06-08T11:01:40.282Z,8.70
2019-06-08T11:04:09.368Z,10.95
2019-06-08T11:06:40.246Z,7.78
2019-06-08T11:09:13.331Z,6.10
2019-06-08T11:11:41.754Z,5.62
2019-06-08T11:14:12.808Z,7.53
2019-06-08T11:16:41.023Z,9.53
2019-06-08T11:19:12.927Z,5.83
2019-06-08T11:21:40.257Z,7.08
2019-06-08T11:24:23.052Z,5.78
2019-06-08T11:26:40.391Z,9.50
2019-06-08T11:29:13.220Z,10.08
2019-06-08T11:31:39.757Z,8.68
2019-06-08T11:34:08.982Z,10.13
2019-06-08T11:36:39.537Z,8.43
2019-06-08T11:39:10.642Z,8.98
2019-06-08T11:41:38.960Z,8.78
2019-06-08T11:44:11.951Z,8.15
2019-06-08T11:46:38.777Z,7.28
2019-06-08T11:49:13.473Z,7.33
2019-06-08T11:51:38.936Z,7.08
2019-06-08T11:54:25.630Z,9.08
2019-06-08T11:56:40.329Z,6.45
2019-06-08T11:59:12.454Z,11.40
2019-06-08T12:01:39.544Z,7.03
2019-06-08T12:04:08.268Z,7.15
2019-06-08T12:06:37.697Z,8.30
2019-06-08T12:09:10.464Z,7.33
2019-06-08T12:11:38.272Z,11.30
2019-06-08T12:14:09.223Z,8.10
2019-06-08T12:16:37.889Z,12.13
2019-06-08T12:19:09.975Z,17.40
2019-06-08T12:21:37.046Z,7.87
2019-06-08T12:24:06.158Z,5.47
2019-06-08T12:26:35.061Z,7.17
2019-06-08T12:29:05.084Z,7.97
2019-06-08T12:31:33.917Z,8.28
2019-06-08T12:34:02.733Z,7.10
2019-06-08T12:36:31.537Z,5.97
2019-06-08T12:39:00.270Z,8.30
2019-06-08T12:41:31.426Z,6.08
2019-06-08T12:43:59.381Z,7.92
2019-06-08T12:46:28.176Z,6.53
2019-06-08T12:48:58.274Z,10.08
2019-06-08T12:51:28.078Z,8.38
2019-06-08T12:53:59.899Z,7.78
2019-06-08T12:56:28.730Z,8.63
2019-06-08T12:58:58.042Z,8.73
2019-06-08T13:01:28.171Z,5.53
2019-06-08T13:03:58.091Z,11.78
2019-06-08T13:06:28.296Z,13.83
2019-06-08T13:08:57.739Z,7.72
2019-06-08T13:11:28.315Z,7.50
2019-06-08T13:13:57.222Z,9.85
2019-06-08T13:16:28.257Z,8.25
2019-06-08T13:18:58.530Z,8.28
2019-06-08T13:21:34.510Z,7.50
2019-06-08T13:23:58.141Z,12.93
2019-06-08T13:26:28.489Z,5.95
2019-06-08T13:28:58.296Z,6.15
2019-06-08T13:31:28.694Z,10.40
2019-06-08T13:33:58.626Z,7.87
2019-06-08T13:36:29.669Z,6.20
2019-06-08T13:38:57.848Z,7.50
2019-06-08T13:41:29.674Z,9.68
2019-06-08T13:43:58.108Z,6.95
2019-06-08T13:46:28.174Z,6.78
2019-06-08T13:48:58.568Z,10.00
2019-06-08T13:51:28.262Z,24.55
2019-06-08T13:53:58.154Z,7.60
2019-06-08T13:56:28.452Z,7.37
2019-06-08T13:58:57.424Z,8.05
2019-06-08T14:01:30.382Z,6.50
2019-06-08T14:03:58.137Z,6.47
2019-06-08T14:06:28.484Z,9.30
2019-06-08T14:08:57.990Z,7.53
2019-06-08T14:11:28.053Z,9.85
2019-06-08T14:14:00.862Z,13.13
2019-06-08T14:16:29.705Z,10.58
2019-06-08T14:18:57.944Z,7.47
2019-06-08T14:21:36.675Z,8.25
2019-06-08T14:23:58.776Z,10.63
2019-06-08T14:26:27.639Z,8.95
2019-06-08T14:29:00.838Z,7.33
2019-06-08T14:31:31.548Z,9.75
2019-06-08T14:33:58.071Z,12.70
2019-06-08T14:36:29.098Z,7.20
2019-06-08T14:39:02.051Z,13.38
2019-06-08T14:41:31.154Z,11.65
2019-06-08T14:43:58.593Z,8.65
2019-06-08T14:46:28.754Z,10.68
2019-06-08T14:48:58.553Z,6.83
2019-06-08T14:51:30.192Z,11.50
2019-06-08T14:53:59.136Z,8.63
2019-06-08T14:56:30.195Z,9.13
2019-06-08T14:59:00.389Z,6.87
2019-06-08T15:01:30.262Z,9.20
2019-06-08T15:03:59.087Z,8.30
2019-06-08T15:06:32.149Z,8.50
2019-06-08T15:08:58.341Z,8.40
2019-06-08T15:11:30.995Z,10.15
2019-06-08T15:13:58.644Z,9.23
2019-06-08T15:16:30.529Z,12.03
2019-06-08T15:19:00.211Z,8.75
2019-06-08T15:21:31.575Z,6.37
2019-06-08T15:23:58.977Z,8.23
2019-06-08T15:26:36.513Z,5.90
2019-06-08T15:28:58.720Z,7.17
2019-06-08T15:31:30.067Z,7.80
2019-06-08T15:34:00.675Z,8.13
2019-06-08T15:36:29.814Z,8.98
2019-06-08T15:38:58.959Z,7.90
2019-06-08T15:41:29.894Z,8.80
2019-06-08T15:43:59.699Z,9.65
2019-06-08T15:46:28.501Z,6.20
2019-06-08T15:48:57.327Z,14.33
2019-06-08T15:51:28.729Z,9.98
2019-06-08T15:53:58.283Z,8.35
2019-06-08T15:56:38.164Z,8.25
2019-06-08T15:58:58.852Z,5.40
2019-06-08T16:01:33.536Z,13.78
2019-06-08T16:04:04.132Z,9.18
2019-06-08T16:06:33.909Z,7.17
2019-06-08T16:09:02.761Z,8.48
2019-06-08T16:11:32.339Z,12.70
2019-06-08T16:14:14.804Z,9.68
2019-06-08T16:16:43.596Z,10.63
2019-06-08T16:19:12.637Z,10.88
2019-06-08T16:21:41.402Z,12.82
2019-06-08T16:24:10.290Z,6.22
2019-06-08T16:26:52.289Z,11.33
2019-06-08T16:29:09.526Z,17.67
2019-06-08T16:31:39.311Z,10.60
2019-06-08T16:34:08.372Z,9.98
2019-06-08T16:36:37.074Z,20.48
2019-06-08T16:39:08.311Z,11.68
2019-06-08T16:41:37.044Z,10.10
2019-06-08T16:44:07.109Z,36.98
2019-06-08T16:46:36.660Z,16.73
2019-06-08T16:49:05.593Z,14.55
2019-06-08T16:51:35.670Z,10.05
2019-06-08T16:54:04.750Z,21.15
2019-06-08T16:56:34.130Z,12.25
2019-06-08T16:59:03.370Z,27.42
2019-06-08T17:01:32.931Z,19.37
2019-06-08T17:04:01.874Z,14.68
2019-06-08T17:06:31.160Z,24.37
2019-06-08T17:09:00.036Z,14.33
2019-06-08T17:11:29.593Z,25.08
2019-06-08T17:13:58.447Z,12.23
2019-06-08T17:16:27.185Z,9.08
2019-06-08T17:18:56.348Z,9.68
2019-06-08T17:21:25.222Z,10.65
2019-06-08T17:23:53.974Z,6.80
2019-06-08T17:26:22.720Z,15.93
2019-06-08T17:28:51.554Z,9.93
2019-06-08T17:31:20.300Z,9.05
2019-06-08T17:33:49.037Z,8.60
2019-06-08T17:36:17.761Z,9.68
2019-06-08T17:38:46.496Z,11.70
2019-06-08T17:41:15.235Z,7.55
2019-06-08T17:43:43.974Z,10.95
2019-06-08T17:46:12.692Z,14.83
2019-06-08T17:48:42.814Z,15.75
2019-06-08T17:51:12.140Z,8.93
2019-06-08T17:53:41.013Z,9.60
2019-06-08T17:56:09.707Z,12.20
2019-06-08T17:58:39.592Z,18.55
2019-06-08T18:01:08.659Z,9.90
2019-06-08T18:03:38.394Z,11.35
2019-06-08T18:06:07.757Z,11.12
2019-06-08T18:08:39.129Z,16.37
2019-06-08T18:11:08.093Z,19.32
2019-06-08T18:13:40.790Z,21.90
2019-06-08T18:16:08.292Z,24.52
2019-06-08T18:18:39.279Z,21.07
2019-06-08T18:21:08.132Z,16.77
2019-06-08T18:23:39.978Z,18.00
2019-06-08T18:26:08.227Z,21.15
2019-06-08T18:28:40.565Z,11.57
2019-06-08T18:31:07.967Z,23.47
2019-06-08T18:33:41.008Z,24.72
2019-06-08T18:36:09.018Z,16.32
2019-06-08T18:38:39.760Z,22.90
2019-06-08T18:41:08.354Z,19.70
2019-06-08T18:43:39.571Z,24.18
2019-06-08T18:46:07.756Z,28.60
2019-06-08T18:48:39.807Z,18.85
2019-06-08T18:51:08.310Z,17.92
2019-06-08T18:53:54.169Z,18.80
2019-06-08T18:56:08.165Z,26.33
2019-06-08T18:58:37.750Z,20.80
2019-06-08T19:01:08.725Z,19.75
2019-06-08T19:03:41.189Z,16.23
2019-06-08T19:06:10.184Z,24.47
2019-06-08T19:08:40.853Z,31.85
2019-06-08T19:11:09.919Z,20.43
2019-06-08T19:13:39.712Z,19.23
2019-06-08T19:16:08.799Z,14.07
2019-06-08T19:18:41.427Z,17.87
2019-06-08T19:21:08.102Z,18.25
2019-06-08T19:23:39.004Z,16.12
2019-06-08T19:26:07.740Z,16.00
2019-06-08T19:28:40.606Z,13.05
2019-06-08T19:31:07.890Z,19.62
2019-06-08T19:33:38.943Z,13.72
2019-06-08T19:36:08.028Z,17.37
2019-06-08T19:38:38.442Z,16.42
2019-06-08T19:41:08.138Z,17.75
2019-06-08T19:43:39.953Z,18.40
2019-06-08T19:46:07.366Z,17.32
2019-06-08T19:48:36.978Z,16.73
2019-06-08T19:51:07.680Z,28.15
2019-06-08T19:53:41.609Z,35.45
2019-06-08T19:56:07.831Z,23.25
2019-06-08T19:58:50.525Z,14.55
2019-06-08T20:01:07.351Z,14.50
2019-06-08T20:03:37.849Z,13.45
2019-06-08T20:06:06.707Z,13.20
2019-06-08T20:08:37.395Z,15.90
2019-06-08T20:11:08.082Z,14.10
2019-06-08T20:13:37.549Z,17.32
2019-06-08T20:16:08.397Z,18.95
2019-06-08T20:18:37.637Z,13.95
2019-06-08T20:21:09.665Z,17.75
2019-06-08T20:23:38.240Z,20.50
2019-06-08T20:26:08.412Z,14.30
2019-06-08T20:28:37.390Z,10.65
2019-06-08T20:31:07.500Z,12.58
2019-06-08T20:33:37.931Z,14.65
2019-06-08T20:36:08.321Z,12.00
2019-06-08T20:38:39.705Z,14.53
2019-06-08T20:41:07.918Z,17.27
2019-06-08T20:43:42.595Z,22.60
2019-06-08T20:46:11.143Z,24.47
2019-06-08T20:48:39.870Z,19.15
2019-06-08T20:51:08.601Z,20.57
2019-06-08T20:53:38.745Z,21.10
2019-06-08T20:56:08.117Z,13.80
2019-06-08T20:58:37.241Z,14.55
2019-06-08T21:01:07.341Z,22.80
2019-06-08T21:03:36.342Z,27.13
2019-06-08T21:06:07.594Z,25.48
2019-06-08T21:08:37.259Z,33.45
2019-06-08T21:11:08.323Z,25.12
2019-06-08T21:13:37.459Z,16.50
2019-06-08T21:16:07.519Z,18.87
2019-06-08T21:18:37.967Z,13.85
2019-06-08T21:21:08.074Z,14.40
2019-06-08T21:23:36.925Z,11.57
2019-06-08T21:26:08.036Z,14.23
2019-06-08T21:28:38.409Z,20.97
2019-06-08T21:31:08.326Z,16.12
2019-06-08T21:33:37.966Z,15.83
2019-06-08T21:36:08.801Z,15.20
2019-06-08T21:38:37.764Z,17.98
2019-06-08T21:41:08.297Z,15.53
2019-06-08T21:43:37.509Z,13.80
2019-06-08T21:46:07.847Z,30.48
2019-06-08T21:48:38.133Z,23.95
2019-06-08T21:51:08.235Z,14.33
2019-06-08T21:53:38.186Z,12.73
2019-06-08T21:56:07.875Z,19.25
2019-06-08T21:58:37.815Z,11.65
2019-06-08T22:01:07.355Z,14.23
2019-06-08T22:03:38.132Z,11.05
2019-06-08T22:06:07.914Z,13.85
2019-06-08T22:08:37.588Z,15.03
2019-06-08T22:11:08.541Z,13.80
2019-06-08T22:13:37.543Z,13.22
2019-06-08T22:16:08.061Z,11.68
2019-06-08T22:18:38.043Z,11.05
2019-06-08T22:21:08.064Z,11.45
2019-06-08T22:23:37.106Z,11.60
2019-06-08T22:26:08.304Z,11.30
2019-06-08T22:28:37.716Z,15.55
2019-06-08T22:31:07.926Z,12.45
2019-06-08T22:33:59.083Z,11.63
2019-06-08T22:36:27.601Z,12.20
2019-06-08T22:38:58.894Z,15.28
2019-06-08T22:41:28.099Z,12.73
2019-06-08T22:43:59.057Z,12.93
2019-06-08T22:46:27.300Z,18.37
2019-06-08T22:49:00.322Z,13.28
2019-06-08T22:51:27.673Z,12.80
2019-06-08T22:53:58.872Z,12.50
2019-06-08T22:56:27.612Z,18.67
2019-06-08T22:59:00.542Z,12.55
2019-06-08T23:01:27.855Z,13.10
2019-06-08T23:04:00.257Z,14.10
2019-06-08T23:06:28.114Z,12.65
2019-06-08T23:08:59.881Z,17.67
2019-06-08T23:11:28.427Z,14.53
2019-06-08T23:13:59.593Z,17.12
2019-06-08T23:16:27.659Z,18.25
2019-06-08T23:19:17.388Z,15.68
2019-06-08T23:21:47.517Z,18.42
2019-06-08T23:24:18.105Z,18.42
2019-06-08T23:26:48.019Z,30.85
2019-06-08T23:29:17.865Z,15.05
2019-06-08T23:31:47.903Z,14.98
2019-06-08T23:34:18.312Z,15.72
2019-06-08T23:36:58.234Z,18.95
2019-06-08T23:39:18.051Z,17.27
2019-06-08T23:41:48.324Z,15.68
2019-06-08T23:44:17.619Z,13.80
2019-06-08T23:46:47.644Z,17.23
2019-06-08T23:49:18.636Z,13.55
2019-06-08T23:51:47.562Z,13.72
2019-06-08T23:54:18.404Z,15.70
2019-06-08T23:56:47.674Z,15.25
2019-06-08T23:59:17.779Z,13.53
